createdAt,value
2018-12-27T00:00:19.431Z,-1.54
2018-12-27T00:02:30.345Z,-1.50
2018-12-27T00:04:41.283Z,-1.50
2018-12-27T00:06:52.206Z,-1.49
2018-12-27T00:09:44.798Z,-1.46
2018-12-27T00:11:55.761Z,-1.39
2018-12-27T00:14:06.677Z,-1.40
2018-12-27T00:16:17.619Z,-1.42
2018-12-27T00:18:28.525Z,-1.41
2018-12-27T00:20:39.479Z,-1.47
2018-12-27T00:22:50.386Z,-1.40
2018-12-27T00:25:01.557Z,-1.43
2018-12-27T00:27:12.509Z,-1.46
2018-12-27T00:29:23.433Z,-1.44
2018-12-27T00:31:34.383Z,-1.47
2018-12-27T00:33:45.309Z,-1.40
2018-12-27T00:35:56.264Z,-1.32
2018-12-27T00:38:07.191Z,-1.28
2018-12-27T00:40:18.149Z,-1.28
2018-12-27T00:42:29.152Z,-1.24
2018-12-27T00:44:40.081Z,-1.29
2018-12-27T00:46:51.026Z,-1.36
2018-12-27T00:49:01.941Z,-1.41
2018-12-27T00:51:12.884Z,-1.37
2018-12-27T00:53:23.811Z,-1.34
2018-12-27T00:55:34.727Z,-1.28
2018-12-27T00:57:45.693Z,-1.26
2018-12-27T00:59:56.623Z,-1.24
2018-12-27T01:02:07.587Z,-1.23
2018-12-27T01:04:18.514Z,-1.18
2018-12-27T01:06:29.558Z,-1.12
2018-12-27T01:08:40.476Z,-1.05
2018-12-27T01:10:51.410Z,-1.08
2018-12-27T01:13:02.357Z,-1.07
2018-12-27T01:15:13.297Z,-1.09
2018-12-27T01:17:24.241Z,-1.07
2018-12-27T01:19:35.185Z,-1.08
2018-12-27T01:21:46.110Z,-1.08
2018-12-27T01:23:57.049Z,-1.16
2018-12-27T01:26:07.968Z,-1.18
2018-12-27T01:28:18.900Z,-1.19
2018-12-27T01:30:29.817Z,-1.23
2018-12-27T01:32:40.759Z,-1.24
2018-12-27T01:34:51.680Z,-1.26
2018-12-27T01:37:02.599Z,-1.34
2018-12-27T01:39:13.540Z,-1.40
2018-12-27T01:41:24.465Z,-1.49
2018-12-27T01:43:35.430Z,-1.47
2018-12-27T01:45:46.361Z,-1.53
2018-12-27T01:47:57.283Z,-1.58
2018-12-27T01:50:08.219Z,-1.65
2018-12-27T01:52:19.151Z,-1.69
2018-12-27T01:54:30.093Z,-1.71
2018-12-27T01:56:41.030Z,-1.69
2018-12-27T01:58:51.994Z,-1.66
2018-12-27T02:01:03.026Z,-1.63
2018-12-27T02:03:13.965Z,-1.61
2018-12-27T02:05:24.911Z,-1.58
2018-12-27T02:07:35.864Z,-1.59
2018-12-27T02:09:46.802Z,-1.55
2018-12-27T02:11:57.742Z,-1.53
2018-12-27T02:14:08.657Z,-1.47
2018-12-27T02:16:19.595Z,-1.40
2018-12-27T02:18:30.510Z,-1.46
2018-12-27T02:20:41.448Z,-1.52
2018-12-27T02:22:52.361Z,-1.46
2018-12-27T02:25:03.281Z,-1.43
2018-12-27T02:27:14.212Z,-1.47
2018-12-27T02:29:25.133Z,-1.50
2018-12-27T02:31:37.193Z,-1.53
2018-12-27T02:33:48.953Z,-1.54
2018-12-27T02:35:59.988Z,-1.56
2018-12-27T02:38:10.912Z,-1.57
2018-12-27T02:40:21.881Z,-1.60
2018-12-27T02:42:32.813Z,-1.58
2018-12-27T02:44:43.720Z,-1.60
2018-12-27T02:46:54.659Z,-1.64
2018-12-27T02:49:05.616Z,-1.67
2018-12-27T02:51:16.533Z,-1.71
2018-12-27T02:53:27.499Z,-1.65
2018-12-27T02:55:38.410Z,-1.66
2018-12-27T02:57:49.372Z,-1.73
2018-12-27T03:00:00.324Z,-1.84
2018-12-27T03:02:11.327Z,-1.89
2018-12-27T03:04:22.269Z,-1.88
2018-12-27T03:06:33.179Z,-1.86
2018-12-27T03:08:44.230Z,-1.87
2018-12-27T03:10:55.165Z,-1.84
2018-12-27T03:13:06.090Z,-1.76
2018-12-27T03:15:17.022Z,-1.74
2018-12-27T03:17:27.950Z,-1.76
2018-12-27T03:19:38.900Z,-1.80
2018-12-27T03:21:49.815Z,-1.79
2018-12-27T03:24:00.760Z,-1.77
2018-12-27T03:26:11.681Z,-1.75
2018-12-27T03:28:22.594Z,-1.73
2018-12-27T03:30:33.549Z,-1.75
2018-12-27T03:32:44.479Z,-1.81
2018-12-27T03:34:55.424Z,-1.89
2018-12-27T03:37:06.346Z,-2.00
2018-12-27T03:39:17.287Z,-2.09
2018-12-27T03:41:28.243Z,-2.21
2018-12-27T03:43:39.179Z,-2.24
2018-12-27T03:45:50.171Z,-2.24
2018-12-27T03:48:01.087Z,-2.21
2018-12-27T03:50:12.034Z,-2.21
2018-12-27T03:52:22.948Z,-2.18
2018-12-27T03:54:33.886Z,-2.13
2018-12-27T03:56:44.841Z,-2.07
2018-12-27T03:58:55.789Z,-1.98
2018-12-27T04:01:06.787Z,-1.94
2018-12-27T04:03:17.654Z,-1.91
2018-12-27T04:05:28.609Z,-1.88
2018-12-27T04:07:39.527Z,-1.90
2018-12-27T04:09:50.461Z,-1.95
2018-12-27T04:12:01.410Z,-1.99
2018-12-27T04:14:12.329Z,-1.99
2018-12-27T04:16:23.283Z,-2.02
2018-12-27T04:18:34.242Z,-2.07
2018-12-27T04:20:45.178Z,-2.13
2018-12-27T04:22:56.102Z,-2.27
2018-12-27T04:25:48.694Z,-2.35
2018-12-27T04:27:59.629Z,-2.47
2018-12-27T04:30:10.552Z,-2.47
2018-12-27T04:33:03.121Z,-2.48
2018-12-27T04:35:14.146Z,-2.50
2018-12-27T04:37:25.092Z,-2.45
2018-12-27T04:39:36.001Z,-2.45
2018-12-27T04:42:28.615Z,-2.40
2018-12-27T04:45:21.218Z,-2.37
2018-12-27T04:47:32.126Z,-2.35
2018-12-27T04:49:43.045Z,-2.30
2018-12-27T04:51:53.985Z,-2.26
2018-12-27T04:54:04.896Z,-2.19
2018-12-27T04:56:15.827Z,-2.12
2018-12-27T04:58:26.787Z,-2.13
2018-12-27T05:00:37.710Z,-2.20
2018-12-27T05:02:48.662Z,-2.28
2018-12-27T05:04:59.582Z,-2.36
2018-12-27T05:07:10.511Z,-2.39
2018-12-27T05:09:21.456Z,-2.46
2018-12-27T05:11:32.358Z,-2.46
2018-12-27T05:13:43.366Z,-2.46
2018-12-27T05:15:54.230Z,-2.49
2018-12-27T05:18:05.173Z,-2.51
2018-12-27T05:20:16.101Z,-2.52
2018-12-27T05:22:27.019Z,-2.52
2018-12-27T05:24:37.950Z,-2.55
2018-12-27T05:26:48.880Z,-2.60
2018-12-27T05:28:59.809Z,-2.60
2018-12-27T05:31:10.790Z,-2.61
2018-12-27T05:33:21.701Z,-2.61
2018-12-27T05:35:32.669Z,-2.61
2018-12-27T05:37:43.587Z,-2.60
2018-12-27T05:39:54.519Z,-2.58
2018-12-27T05:42:05.439Z,-2.56
2018-12-27T05:44:16.364Z,-2.52
2018-12-27T05:46:27.284Z,-2.52
2018-12-27T05:48:38.267Z,-2.51
2018-12-27T05:50:49.212Z,-2.53
2018-12-27T05:53:00.138Z,-2.62
2018-12-27T05:55:11.045Z,-2.66
2018-12-27T05:57:22.007Z,-2.59
2018-12-27T05:59:32.944Z,-2.58
2018-12-27T06:01:43.858Z,-2.58
2018-12-27T06:03:54.823Z,-2.52
2018-12-27T06:06:05.805Z,-2.57
2018-12-27T06:08:16.729Z,-2.64
2018-12-27T06:10:27.666Z,-2.69
2018-12-27T06:12:38.598Z,-2.72
2018-12-27T06:14:49.517Z,-2.75
2018-12-27T06:17:00.563Z,-2.75
2018-12-27T06:19:11.490Z,-2.79
2018-12-27T06:21:22.418Z,-2.79
2018-12-27T06:23:33.337Z,-2.73
2018-12-27T06:25:44.258Z,-2.68
2018-12-27T06:27:55.200Z,-2.54
2018-12-27T06:30:06.111Z,-2.44
2018-12-27T06:32:17.065Z,-2.33
2018-12-27T06:34:28.015Z,-2.28
2018-12-27T06:36:38.939Z,-2.21
2018-12-27T06:38:49.868Z,-2.10
2018-12-27T06:41:00.800Z,-2.05
2018-12-27T06:43:11.750Z,-2.00
2018-12-27T06:45:22.675Z,-1.95
2018-12-27T06:47:33.637Z,-1.91
2018-12-27T06:49:44.581Z,-1.99
2018-12-27T06:51:55.525Z,-2.02
2018-12-27T06:54:06.436Z,-2.00
2018-12-27T06:56:17.355Z,-2.04
2018-12-27T06:58:28.312Z,-2.07
2018-12-27T07:00:39.236Z,-2.08
2018-12-27T07:02:50.181Z,-2.10
2018-12-27T07:05:01.136Z,-2.11
2018-12-27T07:07:12.080Z,-2.13
2018-12-27T07:09:23.015Z,-2.12
2018-12-27T07:11:33.930Z,-2.09
2018-12-27T07:13:44.869Z,-2.06
2018-12-27T07:15:55.783Z,-2.05
2018-12-27T07:18:06.716Z,-2.00
2018-12-27T07:20:17.641Z,-1.96
2018-12-27T07:22:28.553Z,-1.94
2018-12-27T07:24:39.499Z,-1.93
2018-12-27T07:26:50.423Z,-1.90
2018-12-27T07:29:01.359Z,-1.88
2018-12-27T07:31:12.291Z,-1.84
2018-12-27T07:33:23.309Z,-1.80
2018-12-27T07:35:34.262Z,-1.80
2018-12-27T07:37:45.191Z,-1.78
2018-12-27T07:39:56.140Z,-1.74
2018-12-27T07:42:07.184Z,-1.72
2018-12-27T07:44:18.129Z,-1.69
2018-12-27T07:46:29.063Z,-1.67
2018-12-27T07:48:39.984Z,-1.74
2018-12-27T07:50:50.940Z,-1.87
2018-12-27T07:53:01.853Z,-1.85
2018-12-27T07:55:12.800Z,-1.83
2018-12-27T07:57:23.726Z,-1.84
2018-12-27T07:59:34.662Z,-1.85
2018-12-27T08:01:45.674Z,-1.79
2018-12-27T08:03:56.610Z,-1.83
2018-12-27T08:06:07.543Z,-1.88
2018-12-27T08:08:18.459Z,-1.89
2018-12-27T08:10:29.414Z,-1.81
2018-12-27T08:12:40.353Z,-1.69
2018-12-27T08:14:51.281Z,-1.54
2018-12-27T08:17:02.226Z,-1.42
2018-12-27T08:19:13.143Z,-1.25
2018-12-27T08:21:24.090Z,-1.14
2018-12-27T08:23:35.007Z,-1.00
2018-12-27T08:25:45.933Z,-0.82
2018-12-27T08:27:56.874Z,-0.45
2018-12-27T08:30:07.908Z,-0.05
2018-12-27T08:32:18.843Z,0.34
2018-12-27T08:34:29.764Z,0.68
2018-12-27T08:36:40.690Z,0.87
2018-12-27T08:38:51.628Z,0.91
2018-12-27T08:41:02.654Z,1.04
2018-12-27T08:43:13.654Z,1.05
2018-12-27T08:45:24.575Z,0.95
2018-12-27T08:47:35.507Z,0.91
2018-12-27T08:49:46.424Z,0.87
2018-12-27T08:51:57.369Z,0.87
2018-12-27T08:54:08.278Z,0.87
2018-12-27T08:56:19.201Z,0.85
2018-12-27T08:58:30.166Z,0.83
2018-12-27T09:00:41.093Z,0.79
2018-12-27T09:02:52.022Z,0.71
2018-12-27T09:07:55.297Z,0.61
2018-12-27T09:10:06.228Z,0.63
2018-12-27T09:12:17.154Z,0.70
2018-12-27T09:14:28.130Z,0.70
2018-12-27T09:16:39.037Z,0.68
2018-12-27T09:19:09.866Z,0.74
2018-12-27T09:21:20.791Z,0.74
2018-12-27T09:23:31.747Z,0.83
2018-12-27T09:25:42.661Z,0.89
2018-12-27T09:28:13.488Z,0.98
2018-12-27T09:30:24.449Z,0.98
2018-12-27T09:32:35.384Z,1.00
2018-12-27T09:34:46.367Z,1.01
2018-12-27T09:36:57.303Z,1.07
2018-12-27T09:39:08.235Z,1.14
2018-12-27T09:41:19.155Z,1.19
2018-12-27T09:43:30.073Z,1.23
2018-12-27T09:45:41.045Z,1.29
2018-12-27T09:47:51.975Z,1.37
2018-12-27T09:50:44.548Z,1.40
2018-12-27T09:52:55.484Z,1.44
2018-12-27T09:55:06.441Z,1.52
2018-12-27T09:57:17.373Z,1.56
2018-12-27T09:59:28.315Z,1.60
2018-12-27T10:01:39.265Z,1.63
2018-12-27T10:03:50.177Z,1.68
2018-12-27T10:06:01.145Z,1.79
2018-12-27T10:08:12.068Z,1.80
2018-12-27T10:10:23.027Z,1.86
2018-12-27T10:12:33.939Z,1.89
2018-12-27T10:14:44.849Z,1.95
2018-12-27T10:16:55.800Z,2.01
2018-12-27T10:19:06.704Z,2.12
2018-12-27T10:21:17.641Z,2.10
2018-12-27T10:23:28.690Z,2.07
2018-12-27T10:25:39.611Z,2.14
2018-12-27T10:27:50.554Z,2.14
2018-12-27T10:30:01.453Z,2.21
2018-12-27T10:32:12.397Z,2.26
2018-12-27T10:34:23.345Z,2.32
2018-12-27T10:36:34.254Z,2.31
2018-12-27T10:38:45.208Z,2.35
2018-12-27T10:40:56.129Z,2.37
2018-12-27T10:43:07.074Z,2.45
2018-12-27T10:45:18.006Z,2.48
2018-12-27T10:47:28.945Z,2.51
2018-12-27T10:49:39.845Z,2.58
2018-12-27T10:51:50.817Z,2.59
2018-12-27T10:54:01.781Z,2.69
2018-12-27T10:56:12.727Z,2.73
2018-12-27T10:58:23.688Z,2.72
2018-12-27T11:00:34.633Z,2.75
2018-12-27T11:02:45.574Z,2.85
2018-12-27T11:04:57.482Z,2.99
2018-12-27T11:07:09.314Z,3.11
2018-12-27T11:09:20.254Z,3.19
2018-12-27T11:11:31.280Z,3.24
2018-12-27T11:13:42.246Z,3.25
2018-12-27T11:15:53.173Z,3.34
2018-12-27T11:18:04.117Z,3.36
2018-12-27T11:20:15.145Z,3.52
2018-12-27T11:22:26.063Z,3.63
2018-12-27T11:24:37.031Z,3.56
2018-12-27T11:26:47.984Z,3.51
2018-12-27T11:28:58.915Z,3.54
2018-12-27T11:31:09.850Z,3.53
2018-12-27T11:33:20.887Z,3.55
2018-12-27T11:35:31.742Z,3.52
2018-12-27T11:37:42.817Z,3.55
2018-12-27T11:39:53.745Z,3.60
2018-12-27T11:42:04.812Z,3.56
2018-12-27T11:44:15.787Z,3.51
2018-12-27T11:46:26.718Z,3.48
2018-12-27T11:48:37.636Z,3.50
2018-12-27T11:50:48.575Z,3.54
2018-12-27T11:52:59.513Z,3.53
2018-12-27T11:55:10.461Z,3.52
2018-12-27T11:57:21.404Z,3.54
2018-12-27T11:59:32.370Z,3.51
2018-12-27T12:01:43.310Z,3.50
2018-12-27T12:03:54.239Z,3.50
2018-12-27T12:06:05.186Z,3.51
2018-12-27T12:08:16.129Z,3.53
2018-12-27T12:10:27.101Z,3.53
2018-12-27T12:12:38.034Z,3.53
2018-12-27T12:14:48.998Z,3.49
2018-12-27T12:16:59.915Z,3.47
2018-12-27T12:19:10.947Z,3.51
2018-12-27T12:21:21.904Z,3.55
2018-12-27T12:23:32.850Z,4.15
2018-12-27T12:25:43.825Z,4.23
2018-12-27T12:27:54.747Z,4.15
2018-12-27T12:30:47.338Z,4.03
2018-12-27T12:32:58.300Z,3.96
2018-12-27T12:35:29.123Z,3.87
2018-12-27T12:37:40.183Z,3.78
2018-12-27T12:39:51.113Z,3.75
2018-12-27T12:42:08.794Z,3.73
2018-12-27T12:44:19.709Z,3.71
2018-12-27T12:46:30.685Z,3.67
2018-12-27T12:48:41.643Z,3.66
2018-12-27T12:50:52.603Z,3.68
2018-12-27T12:53:03.534Z,3.66
2018-12-27T12:55:14.458Z,3.65
2018-12-27T12:57:45.277Z,3.66
2018-12-27T12:59:56.229Z,3.66
2018-12-27T13:02:07.158Z,3.70
2018-12-27T13:04:18.128Z,3.69
2018-12-27T13:06:29.084Z,3.71
2018-12-27T13:08:40.009Z,3.71
2018-12-27T13:10:50.974Z,3.71
2018-12-27T13:13:01.920Z,3.73
2018-12-27T13:15:12.831Z,3.69
2018-12-27T13:17:23.875Z,3.60
2018-12-27T13:19:34.820Z,3.60
2018-12-27T13:21:45.738Z,3.64
2018-12-27T13:23:56.707Z,3.70
2018-12-27T13:26:07.646Z,3.71
2018-12-27T13:28:18.594Z,3.65
2018-12-27T13:30:29.563Z,3.65
2018-12-27T13:32:40.518Z,4.13
2018-12-27T13:34:51.474Z,4.23
2018-12-27T13:37:02.414Z,4.12
2018-12-27T13:39:13.346Z,4.03
2018-12-27T13:41:24.316Z,3.89
2018-12-27T13:43:35.270Z,3.79
2018-12-27T13:45:46.219Z,3.73
2018-12-27T13:47:57.137Z,3.70
2018-12-27T13:50:08.092Z,3.71
2018-12-27T13:52:19.033Z,3.62
2018-12-27T13:54:29.978Z,3.57
2018-12-27T13:56:40.916Z,3.53
2018-12-27T13:58:51.907Z,3.53
2018-12-27T14:01:02.885Z,3.50
2018-12-27T14:03:13.806Z,3.52
2018-12-27T14:05:24.749Z,3.50
2018-12-27T14:07:35.684Z,3.47
2018-12-27T14:09:46.618Z,3.49
2018-12-27T14:11:57.574Z,3.49
2018-12-27T14:14:08.527Z,3.45
2018-12-27T14:16:19.589Z,3.48
2018-12-27T14:18:30.523Z,3.53
2018-12-27T14:20:41.467Z,3.47
2018-12-27T14:22:52.418Z,3.43
2018-12-27T14:25:03.436Z,3.42
2018-12-27T14:27:14.371Z,3.41
2018-12-27T14:29:25.317Z,3.39
2018-12-27T14:31:36.251Z,3.40
2018-12-27T14:33:47.154Z,3.41
2018-12-27T14:35:58.170Z,3.40
2018-12-27T14:38:09.110Z,3.42
2018-12-27T14:40:20.057Z,3.40
2018-12-27T14:42:30.990Z,3.39
2018-12-27T14:44:41.912Z,3.33
2018-12-27T14:46:52.867Z,3.32
2018-12-27T14:49:03.807Z,3.27
2018-12-27T14:51:14.760Z,3.26
2018-12-27T14:53:25.698Z,3.25
2018-12-27T14:55:36.646Z,3.23
2018-12-27T14:58:07.493Z,3.21
2018-12-27T15:00:18.633Z,3.16
2018-12-27T15:02:29.614Z,3.15
2018-12-27T15:04:40.573Z,3.12
2018-12-27T15:06:51.484Z,3.09
2018-12-27T15:09:44.078Z,3.06
2018-12-27T15:11:55.028Z,3.02
2018-12-27T15:14:06.092Z,2.99
2018-12-27T15:16:17.026Z,2.94
2018-12-27T15:18:27.986Z,2.90
2018-12-27T15:20:38.938Z,2.86
2018-12-27T15:22:49.873Z,2.81
2018-12-27T15:25:00.806Z,2.80
2018-12-27T15:27:11.774Z,2.78
2018-12-27T15:29:22.830Z,2.75
2018-12-27T15:31:33.754Z,2.75
2018-12-27T15:33:44.703Z,2.66
2018-12-27T15:35:55.642Z,3.25
2018-12-27T15:38:06.568Z,3.97
2018-12-27T15:40:17.519Z,3.99
2018-12-27T15:42:28.441Z,3.73
2018-12-27T15:44:39.432Z,3.44
2018-12-27T15:46:50.329Z,3.21
2018-12-27T15:49:01.280Z,3.07
2018-12-27T15:51:12.222Z,2.90
2018-12-27T15:53:23.151Z,2.80
2018-12-27T15:55:34.177Z,2.69
2018-12-27T15:57:45.071Z,2.60
2018-12-27T15:59:56.035Z,2.56
2018-12-27T16:02:06.986Z,2.48
2018-12-27T16:04:18.015Z,2.43
2018-12-27T16:06:28.963Z,2.38
2018-12-27T16:08:39.913Z,2.36
2018-12-27T16:10:50.871Z,2.32
2018-12-27T16:13:01.830Z,2.28
2018-12-27T16:15:12.762Z,2.25
2018-12-27T16:17:23.703Z,2.22
2018-12-27T16:19:34.661Z,2.16
2018-12-27T16:21:45.638Z,2.12
2018-12-27T16:23:56.595Z,2.07
2018-12-27T16:26:07.564Z,2.03
2018-12-27T16:28:18.511Z,2.00
2018-12-27T16:31:11.099Z,1.95
2018-12-27T16:33:22.026Z,1.94
2018-12-27T16:35:32.952Z,1.89
2018-12-27T16:37:43.958Z,1.81
2018-12-27T16:39:54.892Z,1.76
2018-12-27T16:42:05.937Z,1.73
2018-12-27T16:44:16.888Z,1.70
2018-12-27T16:46:27.829Z,1.65
2018-12-27T16:48:38.803Z,1.61
2018-12-27T16:50:49.770Z,1.60
2018-12-27T16:53:00.740Z,1.58
2018-12-27T16:55:11.670Z,1.56
2018-12-27T16:57:22.593Z,1.58
2018-12-27T16:59:33.619Z,1.50
2018-12-27T17:01:44.566Z,1.46
2018-12-27T17:03:55.567Z,1.40
2018-12-27T17:06:06.501Z,1.32
2018-12-27T17:08:17.469Z,1.26
2018-12-27T17:10:28.378Z,1.29
2018-12-27T17:12:39.331Z,1.26
2018-12-27T17:14:50.298Z,1.24
2018-12-27T17:17:01.230Z,1.19
2018-12-27T17:19:12.214Z,1.19
2018-12-27T17:21:23.138Z,1.20
2018-12-27T17:23:34.156Z,1.19
2018-12-27T17:25:45.068Z,1.15
2018-12-27T17:27:55.995Z,1.14
2018-12-27T17:30:48.630Z,1.12
2018-12-27T17:32:59.545Z,1.10
2018-12-27T17:35:10.517Z,1.12
2018-12-27T17:37:23.443Z,1.10
2018-12-27T17:39:34.345Z,1.09
2018-12-27T17:41:45.303Z,1.07
2018-12-27T17:43:56.242Z,1.07
2018-12-27T17:46:07.200Z,1.06
2018-12-27T17:48:18.175Z,1.07
2018-12-27T17:50:29.182Z,1.08
2018-12-27T17:52:40.096Z,1.10
2018-12-27T17:54:51.012Z,1.05
2018-12-27T17:57:01.965Z,0.97
2018-12-27T17:59:12.936Z,0.94
2018-12-27T18:01:23.916Z,0.90
2018-12-27T18:03:34.838Z,0.87
2018-12-27T18:05:45.862Z,0.85
2018-12-27T18:07:56.800Z,0.83
2018-12-27T18:10:07.743Z,0.76
2018-12-27T18:12:18.712Z,0.75
2018-12-27T18:14:29.648Z,0.70
2018-12-27T18:16:40.636Z,0.67
2018-12-27T18:18:51.565Z,0.62
2018-12-27T18:21:02.530Z,0.59
2018-12-27T18:23:13.450Z,0.56
2018-12-27T18:25:24.394Z,0.53
2018-12-27T18:27:35.344Z,0.49
2018-12-27T18:29:46.261Z,0.45
2018-12-27T18:31:57.227Z,0.37
2018-12-27T18:34:08.177Z,0.26
2018-12-27T18:36:19.101Z,0.26
2018-12-27T18:38:30.059Z,0.24
2018-12-27T18:40:41.019Z,0.23
2018-12-27T18:42:51.978Z,0.18
2018-12-27T18:45:44.545Z,0.14
2018-12-27T18:47:55.506Z,0.10
2018-12-27T18:50:06.589Z,0.08
2018-12-27T18:52:17.545Z,0.13
2018-12-27T18:54:28.479Z,0.13
2018-12-27T18:56:39.423Z,0.13
2018-12-27T18:58:50.356Z,0.11
2018-12-27T19:01:01.398Z,0.12
2018-12-27T19:03:12.374Z,0.07
2018-12-27T19:05:23.411Z,0.06
2018-12-27T19:07:34.371Z,0.07
2018-12-27T19:09:45.421Z,0.05
2018-12-27T19:12:36.097Z,0.00
2018-12-27T19:15:28.706Z,-0.02
2018-12-27T19:18:21.312Z,0.01
2018-12-27T19:21:13.887Z,-0.06
2018-12-27T19:23:25.073Z,-0.08
2018-12-27T19:25:36.006Z,-0.09
2018-12-27T19:27:46.941Z,-0.07
2018-12-27T19:29:58.021Z,-0.05
2018-12-27T19:32:08.920Z,-0.02
2018-12-27T19:34:19.916Z,0.02
2018-12-27T19:36:30.847Z,0.04
2018-12-27T19:38:41.777Z,0.08
2018-12-27T19:40:52.755Z,0.10
2018-12-27T19:43:03.779Z,0.11
2018-12-27T19:45:14.879Z,0.15
2018-12-27T19:47:25.828Z,0.20
2018-12-27T19:49:36.801Z,0.22
2018-12-27T19:51:47.756Z,0.26
2018-12-27T19:56:31.116Z,0.23
2018-12-27T19:58:42.050Z,0.28
2018-12-27T20:00:53.026Z,0.31
2018-12-27T20:03:03.971Z,0.30
2018-12-27T20:05:14.935Z,0.28
2018-12-27T20:07:25.979Z,0.33
2018-12-27T20:09:36.908Z,0.33
2018-12-27T20:11:47.919Z,0.29
2018-12-27T20:13:58.946Z,0.20
2018-12-27T20:16:09.914Z,0.10
2018-12-27T20:18:20.860Z,0.02
2018-12-27T20:20:31.878Z,-0.07
2018-12-27T20:23:24.537Z,-0.11
2018-12-27T20:25:35.494Z,-0.10
2018-12-27T20:27:46.453Z,-0.02
2018-12-27T20:29:57.375Z,0.05
2018-12-27T20:32:08.316Z,0.10
2018-12-27T20:34:19.227Z,0.14
2018-12-27T20:36:30.192Z,0.14
2018-12-27T20:38:41.166Z,0.16
2018-12-27T20:40:52.119Z,0.15
2018-12-27T20:43:03.118Z,0.13
2018-12-27T20:45:14.091Z,0.13
2018-12-27T20:47:25.062Z,0.12
2018-12-27T20:49:36.015Z,0.06
2018-12-27T20:51:46.922Z,0.04
2018-12-27T20:53:57.932Z,0.08
2018-12-27T20:56:08.872Z,0.04
2018-12-27T20:58:19.827Z,0.03
2018-12-27T21:00:30.767Z,0.03
2018-12-27T21:02:41.816Z,0.02
2018-12-27T21:04:52.749Z,-0.01
2018-12-27T21:07:03.700Z,-0.03
2018-12-27T21:09:14.665Z,0.01
2018-12-27T21:11:25.585Z,-0.01
2018-12-27T21:13:36.563Z,-0.02
2018-12-27T21:15:47.506Z,-0.05
2018-12-27T21:17:58.443Z,-0.02
2018-12-27T21:20:09.515Z,0.05
2018-12-27T21:22:20.471Z,0.12
2018-12-27T21:24:31.416Z,0.18
2018-12-27T21:26:42.330Z,0.24
2018-12-27T21:28:53.282Z,0.28
2018-12-27T21:31:04.240Z,0.36
2018-12-27T21:33:15.185Z,0.39
2018-12-27T21:35:26.143Z,0.42
2018-12-27T21:37:37.099Z,0.44
2018-12-27T21:39:48.045Z,0.49
2018-12-27T21:41:58.971Z,0.49
2018-12-27T21:44:09.902Z,0.44
2018-12-27T21:46:20.927Z,0.45
2018-12-27T21:48:31.852Z,0.46
2018-12-27T21:50:42.818Z,0.48
2018-12-27T21:52:53.756Z,0.52
2018-12-27T21:55:04.745Z,0.54
2018-12-27T21:57:15.734Z,0.55
2018-12-27T21:59:26.674Z,1.26
2018-12-27T22:01:37.680Z,1.47
2018-12-27T22:03:48.639Z,1.40
2018-12-27T22:05:59.630Z,1.24
2018-12-27T22:08:10.558Z,1.06
2018-12-27T22:10:21.489Z,0.92
2018-12-27T22:12:32.442Z,0.82
2018-12-27T22:14:43.361Z,0.70
2018-12-27T22:16:54.301Z,0.61
2018-12-27T22:19:05.273Z,0.57
2018-12-27T22:21:16.215Z,0.51
2018-12-27T22:23:27.164Z,0.49
2018-12-27T22:25:38.118Z,0.41
2018-12-27T22:27:49.066Z,0.37
2018-12-27T22:29:59.998Z,0.35
2018-12-27T22:32:10.935Z,0.34
2018-12-27T22:34:21.893Z,0.29
2018-12-27T22:36:32.838Z,0.34
2018-12-27T22:38:43.786Z,0.30
2018-12-27T22:40:54.777Z,0.27
2018-12-27T22:43:05.721Z,0.23
2018-12-27T22:45:16.673Z,0.22
2018-12-27T22:47:27.595Z,0.26
2018-12-27T22:49:38.553Z,0.23
2018-12-27T22:51:49.509Z,0.18
2018-12-27T22:54:00.475Z,0.16
2018-12-27T22:56:11.421Z,0.17
2018-12-27T22:58:22.446Z,0.13
2018-12-27T23:02:52.234Z,0.10
2018-12-27T23:05:44.842Z,0.00
2018-12-27T23:07:55.788Z,-0.05
2018-12-27T23:10:06.825Z,-0.04
2018-12-27T23:12:17.858Z,-0.05
2018-12-27T23:14:28.793Z,-0.05
2018-12-27T23:16:39.721Z,0.00
2018-12-27T23:23:59.821Z,0.00
2018-12-27T23:26:10.776Z,0.01
2018-12-27T23:28:21.814Z,-0.03
2018-12-27T23:30:32.740Z,-0.09
2018-12-27T23:32:43.677Z,-0.09
2018-12-27T23:34:54.619Z,-0.12
2018-12-27T23:37:05.570Z,-0.07
2018-12-27T23:39:16.485Z,-0.06
2018-12-27T23:41:27.422Z,-0.07
2018-12-27T23:43:38.340Z,-0.09
2018-12-27T23:45:49.301Z,-0.15
2018-12-27T23:48:00.232Z,-0.14
2018-12-27T23:50:11.162Z,-0.19
2018-12-27T23:52:22.095Z,-0.18
2018-12-27T23:54:33.037Z,-0.27
2018-12-27T23:56:44.000Z,-0.26
2018-12-27T23:58:54.997Z,-0.20
